Time;durP1;ratioP1;P1;durP2;ratioP2;P2;SDS_P1;SDS_P2;PMS_P1;PMS_P2;Temp;Humidity;BMP_temperature;BMP_pressure;BME280_temperature;BME280_humidity;BME280_pressure;Samples;Min_cycle;Max_cycle;Signal;HPM_P1;HPM_P2
2023/06/26 00:01:13;;;;;;;14.23;11.40;;;;;;;24.90;100.00;-18695.06;5044206;28;20068;-79
2023/06/26 00:03:39;;;;;;;13.15;11.40;;;;;;;24.83;100.00;-18693.16;5043634;28;20033;-79
2023/06/26 00:06:04;;;;;;;13.57;11.63;;;;;;;24.83;100.00;-18693.16;5047118;28;20102;-79
2023/06/26 00:08:29;;;;;;;13.95;11.35;;;;;;;24.70;100.00;-18689.78;5052185;28;20037;-79
2023/06/26 00:10:55;;;;;;;13.05;11.65;;;;;;;24.76;100.00;-18691.25;5044444;28;20139;-78
2023/06/26 00:13:21;;;;;;;14.02;10.55;;;;;;;24.56;100.00;-18685.84;5049029;28;20037;-79
2023/06/26 00:15:47;;;;;;;13.57;11.82;;;;;;;24.67;100.00;-18688.97;5053481;28;20044;-77
2023/06/26 00:18:12;;;;;;;14.23;12.02;;;;;;;24.71;100.00;-18689.91;5049105;28;20052;-78
2023/06/26 00:20:37;;;;;;;13.13;11.70;;;;;;;24.70;100.00;-18689.78;5049444;28;20049;-80
2023/06/26 00:23:07;;;;;;;13.50;11.15;;;;;;;24.67;100.00;-18688.81;5049118;28;20988;-79
2023/06/26 00:25:32;;;;;;;13.95;11.40;;;;;;;24.52;100.00;-18685.03;5050554;28;20048;-79
2023/06/26 00:27:58;;;;;;;12.98;11.35;;;;;;;24.61;100.00;-18687.34;5049966;28;20045;-80
2023/06/26 00:30:23;;;;;;;13.23;11.80;;;;;;;24.29;100.00;-18678.94;5050029;28;20051;-78
2023/06/26 00:32:48;;;;;;;13.27;11.23;;;;;;;24.38;100.00;-18681.09;5048340;28;20097;-78
2023/06/26 00:35:14;;;;;;;12.65;11.15;;;;;;;24.48;100.00;-18683.94;5040230;28;20519;-78
2023/06/26 00:37:39;;;;;;;16.05;12.52;;;;;;;24.66;100.00;-18688.56;5050127;28;20057;-77
2023/06/26 00:40:05;;;;;;;15.23;12.80;;;;;;;24.81;100.00;-18692.63;5046310;28;20049;-79
2023/06/26 00:42:30;;;;;;;14.80;13.20;;;;;;;24.83;100.00;-18693.16;5046472;28;20535;-79
2023/06/26 00:44:56;;;;;;;15.40;13.07;;;;;;;24.99;100.00;-18697.34;5053954;28;20124;-79
2023/06/26 00:47:21;;;;;;;15.45;13.85;;;;;;;24.92;100.00;-18695.59;5050788;28;20048;-78
2023/06/26 00:49:48;;;;;;;15.18;13.60;;;;;;;24.85;100.00;-18693.56;5050246;28;22270;-79
2023/06/26 00:52:13;;;;;;;14.93;13.32;;;;;;;25.03;100.00;-18698.44;5064385;28;20736;-78
2023/06/26 00:54:39;;;;;;;15.95;13.27;;;;;;;24.87;100.00;-18694.25;5066272;28;20053;-77
2023/06/26 00:57:05;;;;;;;15.25;12.88;;;;;;;24.81;100.00;-18692.63;5044231;28;20033;-78
2023/06/26 00:59:30;;;;;;;12.75;11.38;;;;;;;25.03;100.00;-18698.44;5045872;28;20063;-77
2023/06/26 01:01:55;;;;;;;13.57;11.38;;;;;;;24.99;100.00;-18697.34;5059552;28;20037;-78
2023/06/26 01:04:21;;;;;;;13.15;11.60;;;;;;;24.87;100.00;-18694.25;5038953;28;20655;-77
2023/06/26 01:06:48;;;;;;;12.15;10.73;;;;;;;24.75;100.00;-18691.13;5035467;28;20060;-77
2023/06/26 01:09:17;;;;;;;11.82;10.43;;;;;;;24.85;100.00;-18693.69;5052416;28;20041;-77
2023/06/26 01:11:42;;;;;;;;;;;;;;;24.95;100.00;-18696.28;5046817;28;20437;-77
2023/06/26 01:14:08;;;;;;;12.23;11.03;;;;;;;24.89;100.00;-18694.78;5043391;28;20039;-78
2023/06/26 01:16:35;;;;;;;14.30;10.45;;;;;;;24.89;100.00;-18694.78;5046416;28;20774;-76
2023/06/26 01:19:01;;;;;;;12.13;10.30;;;;;;;24.90;100.00;-18695.06;5049976;28;20044;-77
2023/06/26 01:21:32;;;;;;;11.35;9.98;;;;;;;25.07;100.00;-18699.38;5066657;28;20044;-76
2023/06/26 01:24:04;;;;;;;13.15;9.85;;;;;;;25.19;100.00;-18702.78;5048356;28;20037;-77
2023/06/26 01:26:35;;;;;;;11.48;10.25;;;;;;;25.25;100.00;-18704.13;5043200;28;20145;-76
2023/06/26 01:29:02;;;;;;;13.95;10.10;;;;;;;25.23;100.00;-18703.59;5044727;28;20093;-79
2023/06/26 01:31:30;;;;;;;12.68;10.27;;;;;;;25.36;100.00;-18707.09;5047932;28;20055;-77
2023/06/26 01:33:58;;;;;;;12.77;9.93;;;;;;;25.32;100.00;-18706.16;5047253;28;20064;-78
2023/06/26 01:36:24;;;;;;;13.05;10.75;;;;;;;25.36;100.00;-18707.09;5046720;28;20048;-77
2023/06/26 01:38:50;;;;;;;12.40;10.30;;;;;;;25.50;100.00;-18710.75;5049638;28;20124;-78
2023/06/26 01:41:17;;;;;;;11.75;10.43;;;;;;;25.64;100.00;-18714.56;5046622;28;20045;-77
2023/06/26 01:43:48;;;;;;;12.65;10.55;;;;;;;25.54;100.00;-18711.97;5049684;28;20541;-77
2023/06/26 01:46:24;;;;;;;11.60;10.15;;;;;;;25.48;100.00;-18710.22;5048574;28;20049;-78
2023/06/26 01:48:59;;;;;;;11.60;10.07;;;;;;;25.48;100.00;-18710.22;5051269;28;20041;-78
2023/06/26 01:51:33;;;;;;;11.95;9.77;;;;;;;25.47;100.00;-18709.94;5054442;28;20049;-79
2023/06/26 01:54:00;;;;;;;11.57;10.43;;;;;;;25.55;100.00;-18712.09;5054978;28;20583;-78
2023/06/26 01:56:27;;;;;;;11.45;10.23;;;;;;;25.42;100.00;-18708.72;5056822;28;20047;-78
2023/06/26 01:58:54;;;;;;;13.25;10.35;;;;;;;25.29;100.00;-18705.34;5054271;28;20098;-78
2023/06/26 02:01:20;;;;;;;12.50;10.85;;;;;;;25.29;100.00;-18705.34;5056626;28;20044;-78
2023/06/26 02:03:45;;;;;;;12.02;10.55;;;;;;;25.34;100.00;-18706.69;5062266;28;20045;-79
2023/06/26 02:06:11;;;;;;;14.77;10.95;;;;;;;25.44;100.00;-18709.41;5055983;28;20056;-77
2023/06/26 02:08:36;;;;;;;12.43;10.40;;;;;;;25.32;100.00;-18706.16;5051055;28;20104;-77
2023/06/26 02:11:01;;;;;;;12.45;10.82;;;;;;;25.40;100.00;-18708.31;5063038;28;20087;-78
2023/06/26 02:13:27;;;;;;;12.40;11.05;;;;;;;25.26;100.00;-18704.53;5052376;28;20108;-78
2023/06/26 02:15:52;;;;;;;13.40;10.68;;;;;;;25.23;100.00;-18703.59;5053154;28;20037;-77
2023/06/26 02:18:17;;;;;;;13.23;10.63;;;;;;;25.40;98.22;-18708.31;5062451;28;20068;-76
2023/06/26 02:20:43;;;;;;;13.77;11.07;;;;;;;25.50;97.57;-18710.75;5057782;28;20041;-78
2023/06/26 02:23:09;;;;;;;14.23;12.02;;;;;;;25.56;96.16;-18712.38;5062584;28;20114;-76
2023/06/26 02:25:35;;;;;;;15.27;11.25;;;;;;;25.44;96.82;-18709.41;5059112;28;20049;-76
2023/06/26 02:28:00;;;;;;;14.60;11.43;;;;;;;25.32;99.40;-18706.16;5046248;28;20068;-77
2023/06/26 02:30:25;;;;;;;13.90;12.40;;;;;;;25.43;97.98;-18709.13;5051311;28;20566;-78
2023/06/26 02:32:50;;;;;;;14.88;11.55;;;;;;;25.48;96.36;-18710.22;5053731;28;20411;-77
2023/06/26 02:35:16;;;;;;;15.32;11.70;;;;;;;25.43;97.38;-18709.13;5054485;28;20052;-79
2023/06/26 02:37:41;;;;;;;14.43;11.27;;;;;;;25.41;97.33;-18708.47;5058643;28;20044;-79
2023/06/26 02:40:08;;;;;;;19.00;12.27;;;;;;;25.41;97.46;-18708.59;5060950;28;20098;-77
2023/06/26 02:42:34;;;;;;;14.30;11.20;;;;;;;25.39;97.25;-18707.91;5057235;28;20037;-78
2023/06/26 02:45:00;;;;;;;13.98;12.00;;;;;;;25.49;96.61;-18710.50;5050414;28;20573;-80
2023/06/26 02:47:25;;;;;;;14.98;11.75;;;;;;;25.25;97.85;-18704.25;5053820;28;20048;-78
2023/06/26 02:49:50;;;;;;;16.27;12.80;;;;;;;25.31;98.50;-18705.75;5055147;28;20059;-79
2023/06/26 02:52:16;;;;;;;15.85;12.23;;;;;;;25.27;98.59;-18704.81;5047795;28;20597;-79
2023/06/26 02:54:41;;;;;;;18.55;13.38;;;;;;;25.11;100.00;-18700.47;5051765;28;20063;-77
2023/06/26 02:57:06;;;;;;;16.23;12.63;;;;;;;25.02;100.00;-18698.03;5057673;28;20416;-79
2023/06/26 02:59:32;;;;;;;15.85;11.98;;;;;;;25.12;100.00;-18700.75;5052441;28;20037;-78
2023/06/26 03:01:57;;;;;;;13.02;11.23;;;;;;;25.18;100.00;-18702.38;5051116;28;20049;-78
2023/06/26 03:04:23;;;;;;;13.48;10.88;;;;;;;25.19;99.01;-18702.63;5052894;28;20139;-78
2023/06/26 03:06:48;;;;;;;14.80;11.15;;;;;;;25.26;97.48;-18704.53;5056438;28;20695;-79
2023/06/26 03:09:14;;;;;;;12.55;10.75;;;;;;;25.28;97.80;-18705.06;5052644;28;20082;-77
2023/06/26 03:11:39;;;;;;;11.30;9.07;;;;;;;25.29;97.27;-18705.34;5054114;28;20037;-79
2023/06/26 03:14:05;;;;;;;12.00;9.88;;;;;;;25.32;96.41;-18706.03;5061412;28;20124;-79
2023/06/26 03:16:31;;;;;;;13.30;9.73;;;;;;;25.24;97.72;-18704.00;5058658;28;20105;-79
2023/06/26 03:18:56;;;;;;;13.73;9.73;;;;;;;25.14;98.94;-18701.28;5057007;28;20041;-77
2023/06/26 03:21:21;;;;;;;14.73;10.50;;;;;;;25.15;98.79;-18701.69;5053130;28;20110;-79
2023/06/26 03:23:47;;;;;;;13.52;10.55;;;;;;;25.21;98.38;-18703.31;5051845;28;20079;-79
2023/06/26 03:26:14;;;;;;;13.38;10.07;;;;;;;25.18;98.85;-18702.50;5056100;28;20128;-78
2023/06/26 03:28:40;;;;;;;14.00;10.88;;;;;;;25.21;99.19;-18703.19;5065985;28;20110;-80
2023/06/26 03:31:05;;;;;;;14.40;10.73;;;;;;;25.19;99.43;-18702.63;5057337;28;20531;-77
2023/06/26 03:33:30;;;;;;;12.13;10.75;;;;;;;25.32;98.66;-18706.03;5049177;28;20041;-77
2023/06/26 03:35:56;;;;;;;13.50;10.43;;;;;;;25.18;99.98;-18702.38;5051880;28;20178;-79
2023/06/26 03:38:22;;;;;;;13.18;10.38;;;;;;;25.14;100.00;-18701.41;5057873;28;20099;-78
2023/06/26 03:40:47;;;;;;;12.98;10.52;;;;;;;25.15;100.00;-18701.56;5065053;28;20056;-77
2023/06/26 03:43:13;;;;;;;13.80;11.02;;;;;;;25.12;100.00;-18700.88;5049658;28;20032;-78
2023/06/26 03:45:38;;;;;;;15.43;10.50;;;;;;;25.23;100.00;-18703.72;5044403;28;20112;-78
2023/06/26 03:48:04;;;;;;;13.15;10.70;;;;;;;25.13;100.00;-18701.00;5034329;28;20045;-77
2023/06/26 03:50:29;;;;;;;15.85;12.00;;;;;;;25.21;100.00;-18703.31;5058001;28;20041;-78
2023/06/26 03:52:54;;;;;;;14.23;11.52;;;;;;;25.15;100.00;-18701.56;5052240;28;20136;-79
2023/06/26 03:55:22;;;;;;;16.13;11.70;;;;;;;25.23;100.00;-18703.72;5054708;28;20114;-79
2023/06/26 03:57:47;;;;;;;14.63;12.15;;;;;;;25.29;100.00;-18705.22;5049774;28;20071;-76
2023/06/26 04:00:14;;;;;;;14.63;11.90;;;;;;;25.28;100.00;-18705.06;5048726;28;20041;-79
2023/06/26 04:02:39;;;;;;;16.60;12.65;;;;;;;25.20;100.00;-18703.06;5048499;28;20045;-77
2023/06/26 04:05:05;;;;;;;17.42;13.63;;;;;;;25.19;100.00;-18702.63;5067474;28;20037;-79
2023/06/26 04:07:31;;;;;;;14.25;11.85;;;;;;;25.08;100.00;-18699.66;5052615;28;20057;-78
2023/06/26 04:09:57;;;;;;;15.88;12.15;;;;;;;25.01;100.00;-18697.75;5050075;28;20495;-76
2023/06/26 04:12:22;;;;;;;14.90;12.95;;;;;;;25.17;100.00;-18702.09;5044157;28;20049;-76
2023/06/26 04:14:47;;;;;;;15.20;12.35;;;;;;;25.09;100.00;-18700.06;5038575;28;20041;-79
2023/06/26 04:17:13;;;;;;;16.98;13.15;;;;;;;25.10;100.00;-18700.34;5063693;28;20045;-77
2023/06/26 04:19:38;;;;;;;16.67;13.55;;;;;;;25.28;100.00;-18704.94;5050541;28;20094;-77
2023/06/26 04:22:04;;;;;;;17.50;13.15;;;;;;;24.95;100.00;-18696.28;5040534;28;20575;-79
2023/06/26 04:24:29;;;;;;;15.70;13.77;;;;;;;24.93;100.00;-18695.88;5047182;28;20157;-77
2023/06/26 04:26:56;;;;;;;16.83;12.10;;;;;;;24.82;100.00;-18692.88;5051293;28;20156;-78
2023/06/26 04:29:25;;;;;;;16.30;13.05;;;;;;;24.91;100.00;-18695.31;5047720;28;20044;-79
2023/06/26 04:31:58;;;;;;;14.68;10.93;;;;;;;24.71;100.00;-18689.91;5047145;28;20036;-81
2023/06/26 04:34:27;;;;;;;14.82;11.00;;;;;;;24.59;100.00;-18686.66;5043193;28;20041;-77
2023/06/26 04:36:53;;;;;;;14.02;11.48;;;;;;;24.57;100.00;-18686.25;5050228;28;20036;-79
2023/06/26 04:39:18;;;;;;;14.00;10.70;;;;;;;24.61;100.00;-18687.34;5056485;28;20036;-79
2023/06/26 04:41:46;;;;;;;14.30;10.35;;;;;;;24.73;100.00;-18690.44;5052796;28;20033;-77
2023/06/26 04:44:12;;;;;;;11.90;9.02;;;;;;;24.67;100.00;-18688.81;5047739;28;20052;-79
2023/06/26 04:46:41;;;;;;;15.80;8.57;;;;;;;24.81;100.00;-18692.63;5044582;28;20136;-77
2023/06/26 04:49:09;;;;;;;13.10;8.02;;;;;;;24.74;100.00;-18690.84;5049590;28;20056;-79
2023/06/26 04:51:40;;;;;;;11.40;7.65;;;;;;;25.02;100.00;-18698.16;5048658;28;20040;-77
2023/06/26 04:54:10;;;;;;;12.00;6.90;;;;;;;24.81;100.00;-18692.47;5053761;28;20500;-77
2023/06/26 04:56:36;;;;;;;12.57;7.13;;;;;;;24.70;100.00;-18689.78;5049212;28;20099;-77
2023/06/26 04:59:01;;;;;;;11.35;7.00;;;;;;;24.85;100.00;-18693.56;5039010;28;20040;-78
2023/06/26 05:01:29;;;;;;;11.98;6.40;;;;;;;24.73;100.00;-18690.44;5047170;28;20034;-79
2023/06/26 05:04:00;;;;;;;10.25;6.70;;;;;;;24.75;100.00;-18691.00;5048190;28;20051;-79
2023/06/26 05:06:25;;;;;;;12.98;6.22;;;;;;;24.68;100.00;-18689.22;5047122;28;20044;-78
2023/06/26 05:08:51;;;;;;;12.32;6.20;;;;;;;24.62;100.00;-18687.47;5046009;28;20033;-80
2023/06/26 05:11:16;;;;;;;13.50;6.50;;;;;;;24.87;100.00;-18694.09;5050209;28;20039;-78
2023/06/26 05:13:42;;;;;;;8.80;5.15;;;;;;;24.81;100.00;-18692.63;5070728;28;20436;-78
2023/06/26 05:16:09;;;;;;;10.85;5.63;;;;;;;24.70;100.00;-18689.78;5048891;28;20047;-79
2023/06/26 05:18:34;;;;;;;14.73;6.18;;;;;;;24.81;100.00;-18692.63;5048649;28;21050;-79
2023/06/26 05:21:00;;;;;;;11.10;6.10;;;;;;;24.88;100.00;-18694.50;5036449;28;20037;-78
2023/06/26 05:23:26;;;;;;;12.25;5.50;;;;;;;25.02;100.00;-18698.03;5044517;28;20094;-78
2023/06/26 05:25:52;;;;;;;9.40;5.50;;;;;;;24.97;100.00;-18696.94;5048196;28;20496;-78
2023/06/26 05:28:18;;;;;;;11.38;5.68;;;;;;;24.86;100.00;-18693.97;5041562;28;20056;-79
2023/06/26 05:30:44;;;;;;;7.65;4.85;;;;;;;24.98;100.00;-18697.09;5058895;28;20131;-78
2023/06/26 05:33:14;;;;;;;13.48;5.35;;;;;;;25.02;100.00;-18698.16;5047492;28;20076;-77
2023/06/26 05:35:41;;;;;;;10.63;5.70;;;;;;;25.00;100.00;-18697.63;5046086;28;20041;-77
2023/06/26 05:38:06;;;;;;;10.57;5.57;;;;;;;25.17;100.00;-18702.09;5045841;28;20045;-76
2023/06/26 05:40:33;;;;;;;10.32;5.05;;;;;;;25.09;100.00;-18700.06;5050774;28;20049;-79
2023/06/26 05:42:59;;;;;;;14.00;5.68;;;;;;;25.04;100.00;-18698.56;5050335;28;20440;-79
2023/06/26 05:45:24;;;;;;;11.50;5.15;;;;;;;24.96;100.00;-18696.53;5045564;28;20045;-81
2023/06/26 05:47:50;;;;;;;10.73;5.07;;;;;;;24.76;100.00;-18691.25;5051165;28;20400;-79
2023/06/26 05:50:17;;;;;;;10.32;4.90;;;;;;;24.87;100.00;-18694.09;5051996;28;20047;-76
2023/06/26 05:52:43;;;;;;;11.93;5.72;;;;;;;25.04;100.00;-18698.56;5047008;28;20203;-77
2023/06/26 05:55:10;;;;;;;12.32;5.53;;;;;;;24.85;100.00;-18693.69;5044639;28;20411;-78
2023/06/26 05:57:37;;;;;;;11.82;5.55;;;;;;;24.75;100.00;-18691.13;5044069;28;20044;-78
2023/06/26 06:00:05;;;;;;;10.02;5.43;;;;;;;24.68;100.00;-18689.09;5043491;28;20037;-80
2023/06/26 06:02:31;;;;;;;14.55;5.70;;;;;;;24.49;100.00;-18684.22;5043028;28;20142;-77
2023/06/26 06:04:56;;;;;;;17.55;6.50;;;;;;;24.63;100.00;-18687.75;5039855;28;20705;-78
2023/06/26 06:07:21;;;;;;;12.65;5.95;;;;;;;24.45;100.00;-18683.13;5044031;28;20404;-79
2023/06/26 06:09:47;;;;;;;11.52;5.22;;;;;;;24.50;100.00;-18684.50;5048493;28;20045;-77
2023/06/26 06:12:12;;;;;;;10.25;5.35;;;;;;;24.70;100.00;-18689.78;5046106;28;20102;-77
2023/06/26 06:14:37;;;;;;;12.18;6.15;;;;;;;24.66;100.00;-18688.56;5047523;28;20060;-76
2023/06/26 06:17:03;;;;;;;12.60;6.10;;;;;;;24.62;100.00;-18687.47;5047891;28;20407;-77
2023/06/26 06:19:28;;;;;;;11.70;6.22;;;;;;;24.75;100.00;-18691.13;5045399;28;20041;-77
2023/06/26 06:21:54;;;;;;;17.38;5.60;;;;;;;24.88;100.00;-18694.50;5037004;28;20488;-78
2023/06/26 06:24:20;;;;;;;14.18;6.88;;;;;;;24.76;100.00;-18691.25;5032410;28;20081;-75
2023/06/26 06:26:45;;;;;;;16.50;7.40;;;;;;;24.82;100.00;-18692.75;5025345;28;20055;-77
2023/06/26 06:29:11;;;;;;;10.70;5.47;;;;;;;24.73;100.00;-18690.44;5021503;28;20559;-78
2023/06/26 06:31:36;;;;;;;13.75;6.43;;;;;;;24.90;100.00;-18694.91;5029978;28;20145;-80
2023/06/26 06:51:37;;;;;;;13.93;5.70;;;;;;;25.11;100.00;-18700.47;5101500;27;20352;-80
2023/06/26 06:54:03;;;;;;;14.05;5.95;;;;;;;25.32;100.00;-18706.03;5074616;28;20066;-81
2023/06/26 06:56:28;;;;;;;12.40;5.88;;;;;;;25.41;100.00;-18708.59;5086492;28;20040;-79
2023/06/26 06:58:53;;;;;;;10.85;5.15;;;;;;;25.43;100.00;-18709.00;5089124;27;20036;-80
2023/06/26 07:01:19;;;;;;;9.63;5.50;;;;;;;25.49;100.00;-18710.50;5080282;28;20048;-81
2023/06/26 07:03:44;;;;;;;10.50;4.65;;;;;;;25.30;100.00;-18705.47;5089650;28;20048;-80
2023/06/26 07:06:09;;;;;;;12.35;4.80;;;;;;;25.60;100.00;-18713.47;5080611;28;20075;-79
2023/06/26 07:08:35;;;;;;;11.23;6.07;;;;;;;25.68;100.00;-18715.63;5066208;28;20095;-82
2023/06/26 07:11:01;;;;;;;14.32;5.88;;;;;;;25.85;100.00;-18720.22;5060459;28;20087;-79
2023/06/26 07:13:26;;;;;;;12.27;4.93;;;;;;;25.74;100.00;-18717.13;5060752;28;20064;-79
2023/06/26 07:15:52;;;;;;;14.43;5.40;;;;;;;25.76;100.00;-18717.78;5076385;28;20033;-79
2023/06/26 07:18:17;;;;;;;11.57;5.00;;;;;;;25.69;100.00;-18715.75;5072600;28;20578;-81
2023/06/26 07:20:43;;;;;;;11.43;5.05;;;;;;;25.66;100.00;-18715.09;5075506;28;20400;-79
2023/06/26 07:23:08;;;;;;;12.57;5.57;;;;;;;25.79;100.00;-18718.47;5061042;28;20068;-79
2023/06/26 07:25:34;;;;;;;14.88;5.60;;;;;;;25.77;100.00;-18718.06;5060866;28;20135;-79
2023/06/26 07:27:59;;;;;;;11.80;5.53;;;;;;;25.64;100.00;-18714.69;5057306;28;20049;-79
2023/06/26 07:30:25;;;;;;;11.38;5.68;;;;;;;25.71;100.00;-18716.31;5070103;28;20056;-79
2023/06/26 07:32:50;;;;;;;10.98;5.45;;;;;;;25.63;100.00;-18714.41;5061211;28;20036;-79
2023/06/26 07:35:16;;;;;;;12.10;5.38;;;;;;;25.55;100.00;-18712.09;5071073;28;20564;-82
2023/06/26 07:37:42;;;;;;;13.07;5.50;;;;;;;25.77;100.00;-18718.06;5059406;28;20094;-79
2023/06/26 07:40:08;;;;;;;11.38;5.85;;;;;;;26.06;100.00;-18725.63;5060405;28;20047;-79
2023/06/26 07:42:34;;;;;;;18.90;5.63;;;;;;;26.11;100.00;-18727.00;5065927;28;20041;-82
2023/06/26 07:44:59;;;;;;;13.40;5.90;;;;;;;26.23;99.15;-18730.25;5059450;28;20037;-80
2023/06/26 07:47:24;;;;;;;9.65;4.85;;;;;;;26.27;100.00;-18731.31;5073336;28;20047;-78
2023/06/26 07:49:50;;;;;;;10.77;4.53;;;;;;;26.46;95.24;-18736.31;5078885;28;20053;-82
2023/06/26 07:52:15;;;;;;;11.15;4.60;;;;;;;26.36;91.32;-18733.63;5086440;28;20064;-78
2023/06/26 07:54:41;;;;;;;10.27;4.03;;;;;;;26.30;90.56;-18732.13;5073861;28;20063;-80
2023/06/26 07:57:07;;;;;;;7.88;3.60;;;;;;;26.26;90.57;-18731.03;5060901;28;20043;-79
2023/06/26 07:59:33;;;;;;;10.57;4.18;;;;;;;26.39;90.69;-18734.44;5059821;28;20539;-79
2023/06/26 08:01:59;;;;;;;11.07;4.10;;;;;;;26.26;91.97;-18731.03;5054055;28;20047;-78
2023/06/26 08:04:28;;;;;;;13.35;5.15;;;;;;;26.34;92.69;-18733.22;5051889;28;20123;-79
2023/06/26 08:06:55;;;;;;;9.15;4.35;;;;;;;26.30;91.77;-18732.13;5045428;28;20044;-79
2023/06/26 08:09:23;;;;;;;11.23;3.95;;;;;;;26.20;90.63;-18729.28;5059167;28;20048;-77
2023/06/26 08:11:49;;;;;;;8.85;4.40;;;;;;;26.28;89.06;-18731.47;5046965;28;20076;-79
2023/06/26 08:14:15;;;;;;;6.38;3.40;;;;;;;26.28;88.03;-18731.59;5046065;28;20088;-78
2023/06/26 08:16:41;;;;;;;7.85;3.53;;;;;;;26.34;85.26;-18733.22;5046729;28;20060;-78
2023/06/26 08:19:07;;;;;;;7.15;3.75;;;;;;;26.60;86.49;-18739.84;5044052;28;20039;-78
2023/06/26 08:21:33;;;;;;;7.22;3.38;;;;;;;26.68;85.15;-18742.00;5043154;28;20044;-79
2023/06/26 08:23:58;;;;;;;5.80;3.40;;;;;;;26.85;77.40;-18746.47;5044465;28;20044;-78
2023/06/26 08:26:24;;;;;;;5.63;3.42;;;;;;;26.66;76.57;-18741.59;5048409;28;20036;-77
2023/06/26 08:28:49;;;;;;;7.75;3.50;;;;;;;26.63;77.92;-18740.78;5049414;28;20785;-77
2023/06/26 08:31:16;;;;;;;5.35;2.83;;;;;;;26.53;78.26;-18738.09;5048064;28;20041;-77
2023/06/26 08:33:41;;;;;;;7.35;2.75;;;;;;;26.51;80.66;-18737.53;5048377;28;20088;-78
2023/06/26 08:36:07;;;;;;;5.78;2.90;;;;;;;26.76;82.53;-18744.31;5054439;28;20036;-76
2023/06/26 08:38:32;;;;;;;5.82;2.92;;;;;;;26.91;76.83;-18748.22;5057315;28;20044;-77
2023/06/26 08:40:58;;;;;;;5.95;2.50;;;;;;;26.84;73.77;-18746.31;5060867;28;20115;-79
2023/06/26 08:43:24;;;;;;;4.82;2.60;;;;;;;26.81;75.33;-18745.38;5053083;28;20037;-79
2023/06/26 08:45:51;;;;;;;5.68;2.25;;;;;;;26.88;72.34;-18747.28;5055490;28;20090;-81
2023/06/26 08:48:18;;;;;;;6.13;2.35;;;;;;;27.18;69.36;-18755.38;5043867;28;20041;-80
2023/06/26 08:50:44;;;;;;;5.55;2.30;;;;;;;26.99;68.26;-18750.38;5043133;28;20487;-81
2023/06/26 08:53:48;;;;;;;5.65;2.60;;;;;;;26.87;69.27;-18747.00;5045154;28;20032;-82
2023/06/26 08:56:17;;;;;;;6.07;2.65;;;;;;;26.56;72.57;-18738.91;5003516;28;20041;-82
2023/06/26 08:58:42;;;;;;;;;;;;;;;26.72;73.16;-18743.09;5050067;28;20439;-81
2023/06/26 09:01:08;;;;;;;6.30;2.53;;;;;;;26.80;71.73;-18745.09;5055965;28;20535;-82
2023/06/26 09:03:34;;;;;;;6.97;2.58;;;;;;;26.53;72.82;-18738.09;5045043;28;20838;-83
2023/06/26 09:05:59;;;;;;;3.97;2.10;;;;;;;26.52;73.22;-18737.81;5036726;28;20037;-80
2023/06/26 09:08:25;;;;;;;6.25;2.80;;;;;;;26.44;72.74;-18735.78;5048921;28;20053;-79
2023/06/26 09:10:52;;;;;;;5.22;2.60;;;;;;;26.36;74.70;-18733.63;5049275;28;20041;-78
2023/06/26 09:13:18;;;;;;;3.95;2.63;;;;;;;26.58;74.22;-18739.31;5067382;28;20045;-79
2023/06/26 09:15:45;;;;;;;4.20;2.85;;;;;;;26.77;71.76;-18744.56;5052760;28;20404;-79
2023/06/26 09:18:10;;;;;;;5.78;3.00;;;;;;;26.72;70.86;-18743.22;5044361;28;20519;-79
2023/06/26 09:20:36;;;;;;;5.32;2.60;;;;;;;26.68;69.64;-18742.13;5049556;28;20037;-82
2023/06/26 09:23:03;;;;;;;6.78;2.53;;;;;;;26.82;68.90;-18745.66;5048123;28;20048;-79
2023/06/26 09:25:29;;;;;;;6.47;2.70;;;;;;;26.71;67.02;-18742.94;5049172;28;20048;-82
2023/06/26 09:27:55;;;;;;;6.50;2.50;;;;;;;26.70;66.33;-18742.69;5051085;28;20037;-82
2023/06/26 09:30:21;;;;;;;6.10;2.70;;;;;;;26.74;66.41;-18743.63;5052182;28;20139;-83
2023/06/26 09:32:46;;;;;;;6.80;2.83;;;;;;;26.78;65.68;-18744.69;5074230;28;20078;-79
2023/06/26 09:35:12;;;;;;;7.13;2.78;;;;;;;26.55;67.61;-18738.63;5075054;28;20044;-79
2023/06/26 09:37:38;;;;;;;4.82;2.85;;;;;;;26.63;67.84;-18740.66;5055812;28;20079;-79
2023/06/26 09:40:08;;;;;;;6.10;3.05;;;;;;;26.79;68.20;-18744.97;5055016;28;20092;-80
2023/06/26 09:42:33;;;;;;;5.78;2.97;;;;;;;26.93;65.20;-18748.75;5062987;28;20064;-80
2023/06/26 09:44:59;;;;;;;5.43;2.67;;;;;;;26.70;65.49;-18742.53;5050290;28;20140;-80
2023/06/26 09:47:24;;;;;;;5.18;2.67;;;;;;;26.64;63.76;-18740.91;5061071;28;20037;-79
2023/06/26 09:49:52;;;;;;;6.18;2.90;;;;;;;26.63;64.77;-18740.78;5047954;28;20056;-80
2023/06/26 09:52:19;;;;;;;4.03;2.38;;;;;;;26.58;63.82;-18739.31;5054378;28;20056;-79
2023/06/26 09:54:45;;;;;;;5.97;2.70;;;;;;;26.33;65.83;-18732.81;5061979;28;20060;-79
2023/06/26 09:57:15;;;;;;;4.90;2.42;;;;;;;26.24;61.93;-18730.38;5062662;28;20028;-79
2023/06/26 09:59:45;;;;;;;5.07;2.63;;;;;;;26.40;61.57;-18734.69;5067538;28;20674;-80
2023/06/26 10:02:11;;;;;;;5.18;2.45;;;;;;;26.66;62.61;-18741.59;5047118;28;20083;-80
2023/06/26 10:04:37;;;;;;;4.25;2.40;;;;;;;26.82;64.25;-18745.66;5050082;28;20052;-80
2023/06/26 10:07:06;;;;;;;5.95;2.72;;;;;;;26.78;61.53;-18744.69;5046321;28;20086;-80
2023/06/26 10:09:32;;;;;;;6.07;2.40;;;;;;;26.89;60.38;-18747.69;5046351;28;20044;-80
2023/06/26 10:12:05;;;;;;;6.80;3.22;;;;;;;26.70;57.02;-18742.69;5045636;28;20172;-81
2023/06/26 10:14:38;;;;;;;8.52;2.50;;;;;;;26.62;56.37;-18740.50;5051642;28;20037;-79
2023/06/26 10:17:09;;;;;;;5.55;2.80;;;;;;;26.76;56.51;-18744.31;5076296;28;20037;-79
2023/06/26 10:19:37;;;;;;;4.03;1.98;;;;;;;26.60;56.91;-18739.84;5054145;28;20055;-79
2023/06/26 10:22:04;;;;;;;5.50;2.58;;;;;;;26.71;57.43;-18742.94;5048482;28;20098;-81
2023/06/26 10:24:33;;;;;;;5.47;2.38;;;;;;;26.50;54.32;-18737.41;5049411;28;20105;-80
2023/06/26 10:27:14;;;;;;;5.75;2.40;;;;;;;26.68;56.34;-18742.13;5053785;28;20079;-80
2023/06/26 10:29:40;;;;;;;4.68;2.17;;;;;;;26.51;56.06;-18737.69;5056831;28;20037;-81
2023/06/26 10:32:07;;;;;;;6.13;3.05;;;;;;;26.78;57.19;-18744.69;5050597;28;20104;-80
2023/06/26 10:34:33;;;;;;;5.50;2.70;;;;;;;26.81;56.26;-18745.50;5061466;28;20037;-79
2023/06/26 10:37:00;;;;;;;3.75;2.15;;;;;;;26.99;55.26;-18750.25;5064632;28;20029;-80
2023/06/26 10:39:26;;;;;;;5.15;2.60;;;;;;;27.04;55.98;-18751.59;5046491;28;20052;-83
2023/06/26 10:41:55;;;;;;;6.93;2.50;;;;;;;27.40;56.36;-18761.06;5051411;28;20115;-79
2023/06/26 10:44:21;;;;;;;5.45;2.20;;;;;;;27.24;52.28;-18756.88;5050555;28;20817;-80
2023/06/26 10:46:58;;;;;;;4.47;2.13;;;;;;;27.16;51.25;-18754.84;5064538;28;20033;-80
2023/06/26 10:49:29;;;;;;;5.15;2.08;;;;;;;26.97;51.31;-18749.69;5046912;28;20126;-79
2023/06/26 10:51:57;;;;;;;4.07;1.67;;;;;;;26.92;49.21;-18748.47;5054660;28;20037;-79
2023/06/26 10:54:28;;;;;;;3.28;1.85;;;;;;;27.05;50.86;-18751.72;5054655;28;20506;-79
2023/06/26 10:56:58;;;;;;;4.47;1.92;;;;;;;27.07;51.47;-18752.41;5061978;28;20055;-79
2023/06/26 10:59:26;;;;;;;3.83;2.00;;;;;;;27.23;50.37;-18756.59;5058745;28;20045;-79
2023/06/26 11:01:57;;;;;;;5.40;1.92;;;;;;;27.38;49.96;-18760.50;5057448;28;20438;-79
2023/06/26 11:04:49;;;;;;;4.13;1.73;;;;;;;27.16;47.20;-18754.84;5044594;28;20120;-80
2023/06/26 11:07:24;;;;;;;5.22;1.65;;;;;;;27.18;48.20;-18755.38;5041560;28;20561;-80
2023/06/26 11:10:00;;;;;;;3.83;1.75;;;;;;;27.32;47.70;-18758.88;5043212;28;20384;-81
2023/06/26 11:12:42;;;;;;;4.63;1.55;;;;;;;27.25;45.01;-18757.13;5047810;28;20045;-80
2023/06/26 11:15:16;;;;;;;3.92;1.42;;;;;;;27.38;44.85;-18760.66;5047255;28;20037;-81
2023/06/26 11:17:43;;;;;;;3.60;1.52;;;;;;;27.75;44.70;-18770.38;5042674;28;20049;-80
2023/06/26 11:20:13;;;;;;;3.80;1.40;;;;;;;27.66;45.05;-18767.94;5046761;28;20061;-82
2023/06/26 11:22:41;;;;;;;2.63;1.42;;;;;;;27.90;45.11;-18774.28;5045024;28;20448;-81
2023/06/26 11:25:07;;;;;;;3.60;1.10;;;;;;;27.57;44.28;-18765.63;5046930;28;20049;-81
2023/06/26 11:27:42;;;;;;;5.65;1.23;;;;;;;27.73;43.34;-18769.81;5047168;28;20040;-82